Time;durP1;ratioP1;P1;durP2;ratioP2;P2;SDS_P1;SDS_P2;PMS_P1;PMS_P2;Temp;Humidity;BMP_temperature;BMP_pressure;BME280_temperature;BME280_humidity;BME280_pressure;Samples;Min_cycle;Max_cycle;Signal;HPM_P1;HPM_P2
2021/07/31 00:00:18;;;;;;;7.57;3.87;;;;;;;13.85;100.00;29534.59;5062862;28;20387;-67
2021/07/31 00:02:44;;;;;;;8.53;3.77;;;;;;;13.73;100.00;36124.00;5075161;28;20024;-68
2021/07/31 00:05:10;;;;;;;11.13;3.73;;;;;;;13.68;100.00;36120.72;5062980;28;20404;-68
2021/07/31 00:07:36;;;;;;;23.87;3.90;;;;;;;13.67;100.00;35460.25;5080045;28;20028;-68
2021/07/31 00:10:02;;;;;;;12.50;4.50;;;;;;;13.65;100.00;35458.66;5075179;28;20024;-68
2021/07/31 00:12:27;;;;;;;14.67;4.30;;;;;;;13.55;100.00;32154.22;5064961;28;20016;-67
2021/07/31 00:14:53;;;;;;;10.83;4.00;;;;;;;13.60;100.00;35125.47;5075600;28;20033;-67
2021/07/31 00:17:18;;;;;;;12.27;4.47;;;;;;;13.79;100.00;40092.13;5068526;28;20037;-68
2021/07/31 00:19:44;;;;;;;11.93;4.43;;;;;;;13.93;100.00;43410.13;5065002;28;20039;-68
2021/07/31 00:22:12;;;;;;;11.03;4.60;;;;;;;14.13;100.00;46074.34;5068683;28;20114;-68
2021/07/31 00:24:38;;;;;;;10.83;4.47;;;;;;;14.12;100.00;42431.09;5073013;28;20120;-68
2021/07/31 00:27:04;;;;;;;14.40;4.90;;;;;;;14.13;100.00;40777.50;5063815;28;20107;-68
2021/07/31 00:29:29;;;;;;;17.07;5.17;;;;;;;14.14;100.00;40117.06;5070981;28;20078;-67
2021/07/31 00:31:55;;;;;;;10.77;5.47;;;;;;;14.16;100.00;39787.41;5067081;28;20036;-67
2021/07/31 00:34:20;;;;;;;11.60;4.90;;;;;;;14.21;100.00;41776.03;5072161;28;20119;-68
2021/07/31 00:36:46;;;;;;;10.50;5.00;;;;;;;14.30;100.00;44100.47;5075930;28;20056;-68
2021/07/31 00:39:11;;;;;;;8.17;4.83;;;;;;;14.33;100.00;45759.78;5070983;28;20381;-67
2021/07/31 00:41:37;;;;;;;12.67;5.60;;;;;;;14.41;100.00;44109.13;5067165;28;20035;-68
2021/07/31 00:44:02;;;;;;;12.13;4.80;;;;;;;14.47;100.00;43120.13;5070635;28;20028;-68
2021/07/31 00:46:28;;;;;;;12.70;5.23;;;;;;;14.51;100.00;30559.97;5066278;28;20029;-67
2021/07/31 00:48:55;;;;;;;9.17;4.07;;;;;;;14.58;100.00;18703.97;5068711;28;20112;-67
2021/07/31 00:51:20;;;;;;;8.67;4.27;;;;;;;14.72;100.00;-4889.44;5064275;28;20453;-66
2021/07/31 00:53:48;;;;;;;8.80;3.50;;;;;;;14.84;100.00;-19552.38;5070294;28;20060;-67
2021/07/31 00:56:15;;;;;;;9.33;3.17;;;;;;;14.89;100.00;-19553.81;5066396;28;20484;-67
2021/07/31 00:58:42;;;;;;;12.13;3.60;;;;;;;14.94;100.00;-19555.00;5077003;28;20016;-67
2021/07/31 01:01:07;;;;;;;6.53;2.93;;;;;;;14.97;100.00;-19555.63;5072846;28;20032;-67
2021/07/31 01:03:33;;;;;;;8.43;3.10;;;;;;;14.97;100.00;-19555.78;5080196;22;20076;-68
2021/07/31 01:05:58;;;;;;;5.47;2.50;;;;;;;15.07;100.00;-19558.38;5037570;28;20033;-68
2021/07/31 01:08:24;;;;;;;7.37;2.77;;;;;;;15.11;100.00;-19559.44;5039934;28;20033;-69
2021/07/31 01:10:50;;;;;;;10.40;2.70;;;;;;;15.11;100.00;-19559.44;5041721;28;20115;-69
2021/07/31 01:13:16;;;;;;;5.80;2.40;;;;;;;15.18;100.00;-19561.28;5040415;28;20025;-69
2021/07/31 01:16:02;;;;;;;7.87;2.50;;;;;;;15.14;100.00;-19560.09;5039428;28;20094;-69
2021/07/31 01:18:28;;;;;;;4.50;1.93;;;;;;;15.14;100.00;-19560.09;5041379;28;20177;-69
2021/07/31 01:20:54;;;;;;;5.03;2.20;;;;;;;15.11;100.00;-19559.44;5042577;28;20180;-69
2021/07/31 01:23:19;;;;;;;5.87;2.37;;;;;;;15.08;100.00;-19558.66;5041841;28;20220;-69
2021/07/31 01:25:45;;;;;;;3.87;1.90;;;;;;;15.05;100.00;-19557.75;5041309;28;20280;-69
2021/07/31 01:28:11;;;;;;;5.43;2.03;;;;;;;15.05;100.00;-19557.88;5041359;28;20442;-69
2021/07/31 01:30:36;;;;;;;5.47;2.00;;;;;;;15.00;100.00;-19556.44;5042429;28;20033;-69
2021/07/31 01:33:02;;;;;;;9.67;2.30;;;;;;;14.96;100.00;-19555.50;5042642;28;20044;-69
2021/07/31 01:35:27;;;;;;;6.80;1.90;;;;;;;14.96;100.00;-19555.50;5042989;28;20144;-69
2021/07/31 01:37:53;;;;;;;5.73;2.00;;;;;;;14.98;100.00;-19555.91;5040940;28;20485;-69
2021/07/31 01:40:18;;;;;;;4.37;1.77;;;;;;;14.96;100.00;-19555.50;5042465;28;20269;-69
2021/07/31 01:42:44;;;;;;;11.93;2.00;;;;;;;15.01;100.00;-19556.81;5042417;28;20566;-69
2021/07/31 01:45:10;;;;;;;5.00;1.70;;;;;;;15.04;100.00;-19557.47;5041706;28;20474;-70
2021/07/31 01:47:35;;;;;;;3.90;1.63;;;;;;;15.09;100.00;-19558.91;5041562;28;20033;-69
2021/07/31 01:50:01;;;;;;;4.13;1.50;;;;;;;15.17;100.00;-19560.88;5039005;28;20342;-69
2021/07/31 01:52:26;;;;;;;4.07;1.50;;;;;;;15.22;100.00;-19562.31;5041856;28;20029;-69
2021/07/31 01:54:52;;;;;;;3.60;1.30;;;;;;;15.16;100.00;-19560.75;5034100;28;20594;-69
2021/07/31 01:57:18;;;;;;;4.07;1.40;;;;;;;15.09;100.00;-19558.78;5040534;28;20025;-69
2021/07/31 01:59:43;;;;;;;3.90;1.40;;;;;;;15.02;100.00;-19556.94;5040216;28;20625;-69
2021/07/31 02:02:09;;;;;;;4.33;1.60;;;;;;;15.09;100.00;-19558.91;5040923;28;20033;-69
2021/07/31 02:04:34;;;;;;;6.17;1.70;;;;;;;15.11;100.00;-19559.44;5041739;28;20044;-69
2021/07/31 02:07:01;;;;;;;5.53;1.97;;;;;;;15.14;100.00;-19560.22;5041916;28;20056;-69
2021/07/31 02:09:27;;;;;;;2.70;1.43;;;;;;;15.09;100.00;-19558.91;5041033;28;20029;-69
2021/07/31 02:11:52;;;;;;;2.47;1.20;;;;;;;15.08;100.00;-19558.66;5041504;28;20029;-69
2021/07/31 02:14:18;;;;;;;5.90;1.43;;;;;;;15.22;100.00;-19562.19;5040230;28;20052;-69
2021/07/31 02:16:43;;;;;;;4.00;1.40;;;;;;;15.18;100.00;-19561.13;5039434;28;20417;-69
2021/07/31 02:19:09;;;;;;;5.90;1.73;;;;;;;15.22;100.00;-19562.19;5038262;28;20072;-69
2021/07/31 02:21:34;;;;;;;3.20;1.40;;;;;;;15.34;100.00;-19565.31;5040675;28;20033;-69
2021/07/31 02:24:00;;;;;;;4.73;1.33;;;;;;;15.19;100.00;-19561.53;5041657;28;20048;-68
2021/07/31 02:26:25;;;;;;;4.30;1.87;;;;;;;15.21;100.00;-19562.06;5038754;28;20048;-69
2021/07/31 02:28:51;;;;;;;3.13;1.63;;;;;;;15.10;100.00;-19559.16;5041051;28;20588;-69
2021/07/31 02:31:17;;;;;;;4.67;1.43;;;;;;;14.91;100.00;-19554.34;5041145;28;20398;-69
2021/07/31 02:33:42;;;;;;;5.43;1.57;;;;;;;14.80;100.00;-19551.31;5040344;28;20474;-69
2021/07/31 02:36:08;;;;;;;4.83;1.17;;;;;;;14.75;100.00;-19550.00;5041473;28;20267;-69
2021/07/31 02:38:34;;;;;;;7.30;1.57;;;;;;;14.55;100.00;-19544.91;5039315;28;20220;-69
2021/07/31 02:41:00;;;;;;;3.83;1.40;;;;;;;14.39;100.00;-19540.84;5038412;28;20041;-69
2021/07/31 02:43:26;;;;;;;5.97;1.70;;;;;;;14.30;100.00;-19538.47;5041077;28;20029;-69
2021/07/31 02:45:51;;;;;;;5.07;1.60;;;;;;;14.21;100.00;-19536.25;5040976;28;20037;-69
2021/07/31 02:48:17;;;;;;;7.20;1.83;;;;;;;14.24;100.00;-19536.91;5041157;28;20113;-70
2021/07/31 02:50:42;;;;;;;9.47;1.43;;;;;;;14.22;100.00;-19536.38;5041067;28;20100;-69
2021/07/31 02:53:08;;;;;;;5.30;1.70;;;;;;;14.45;100.00;-19542.41;5040814;28;20481;-70
2021/07/31 02:55:33;;;;;;;3.50;1.50;;;;;;;14.63;100.00;-19547.00;5036056;28;20090;-70
2021/07/31 02:57:58;;;;;;;5.77;1.60;;;;;;;14.68;100.00;-19548.19;5041278;28;20040;-69
2021/07/31 03:00:24;;;;;;;8.40;2.07;;;;;;;14.60;100.00;-19546.34;5040790;28;20115;-71
2021/07/31 03:02:50;;;;;;;5.97;1.90;;;;;;;14.62;100.00;-19546.88;5040470;28;20028;-71
2021/07/31 03:05:15;;;;;;;5.13;1.70;;;;;;;14.57;100.00;-19545.56;5039544;28;20049;-71
2021/07/31 03:07:41;;;;;;;5.37;1.97;;;;;;;14.55;100.00;-19545.03;5039976;28;20041;-71
2021/07/31 03:10:07;;;;;;;6.80;1.80;;;;;;;14.57;100.00;-19545.44;5037899;28;20033;-71
2021/07/31 03:12:33;;;;;;;5.27;1.80;;;;;;;14.53;100.00;-19544.50;5040666;28;20120;-71
2021/07/31 03:14:58;;;;;;;4.33;1.67;;;;;;;14.55;100.00;-19545.03;5038782;28;20107;-71
2021/07/31 03:17:24;;;;;;;4.37;1.63;;;;;;;14.61;100.00;-19546.59;5040788;28;20264;-71
2021/07/31 03:19:49;;;;;;;6.77;1.90;;;;;;;14.63;100.00;-19547.13;5039835;28;20060;-71
2021/07/31 03:22:15;;;;;;;6.37;1.80;;;;;;;14.73;100.00;-19549.50;5040635;28;20143;-71
2021/07/31 03:24:41;;;;;;;3.67;1.50;;;;;;;14.78;100.00;-19550.78;5038473;28;20033;-71
2021/07/31 03:27:07;;;;;;;2.77;1.20;;;;;;;14.82;100.00;-19551.84;5039116;28;20039;-71
2021/07/31 03:29:33;;;;;;;4.10;1.50;;;;;;;14.74;100.00;-19549.88;5038768;28;20032;-71
2021/07/31 03:31:59;;;;;;;5.20;1.70;;;;;;;14.81;100.00;-19551.59;5040237;28;20320;-71
2021/07/31 03:34:24;;;;;;;7.80;1.70;;;;;;;14.86;100.00;-19552.88;5039048;28;20033;-71
2021/07/31 03:36:53;;;;;;;5.47;1.67;;;;;;;14.91;100.00;-19554.19;5040264;28;20033;-71
2021/07/31 03:39:21;;;;;;;4.70;1.57;;;;;;;14.95;100.00;-19555.25;5039447;28;20033;-71
2021/07/31 03:41:46;;;;;;;3.47;1.33;;;;;;;15.02;100.00;-19556.94;5040018;28;20036;-71
2021/07/31 03:44:12;;;;;;;3.20;1.30;;;;;;;15.13;100.00;-19559.97;5039913;28;20039;-71
2021/07/31 03:46:44;;;;;;;4.63;1.40;;;;;;;15.07;100.00;-19558.25;5040152;28;20593;-71
2021/07/31 03:49:11;;;;;;;5.13;1.60;;;;;;;15.13;100.00;-19559.81;5039428;28;20058;-71
2021/07/31 03:51:36;;;;;;;3.23;1.80;;;;;;;15.09;100.00;-19558.78;5039868;28;20167;-71
2021/07/31 03:54:02;;;;;;;3.73;1.73;;;;;;;15.13;100.00;-19559.97;5039022;28;20522;-71
2021/07/31 03:56:27;;;;;;;4.70;1.60;;;;;;;15.17;100.00;-19561.00;5036508;28;20028;-71
2021/07/31 03:58:56;;;;;;;7.17;2.27;;;;;;;15.07;100.00;-19558.38;5039222;28;20041;-71
2021/07/31 04:01:25;;;;;;;7.13;1.80;;;;;;;15.18;100.00;-19561.13;5038862;28;20033;-71
2021/07/31 04:03:54;;;;;;;3.80;1.43;;;;;;;15.07;100.00;-19558.25;5038345;28;20097;-71
2021/07/31 04:06:20;;;;;;;3.93;1.77;;;;;;;15.09;100.00;-19558.91;5040141;28;20146;-71
2021/07/31 04:08:45;;;;;;;4.63;1.37;;;;;;;15.19;100.00;-19561.53;5038906;28;20116;-71
2021/07/31 04:11:11;;;;;;;5.40;2.00;;;;;;;15.23;100.00;-19562.44;5039275;28;20036;-71
2021/07/31 04:13:37;;;;;;;6.33;1.70;;;;;;;15.15;100.00;-19560.34;5039264;28;20287;-71
2021/07/31 04:16:07;;;;;;;7.87;1.80;;;;;;;15.12;100.00;-19559.69;5035372;28;20178;-71
2021/07/31 04:18:33;;;;;;;5.90;1.73;;;;;;;15.22;100.00;-19562.31;5039064;28;20466;-71
2021/07/31 04:21:01;;;;;;;5.57;1.53;;;;;;;15.28;100.00;-19563.75;5039085;28;20036;-71
2021/07/31 04:23:27;;;;;;;5.37;1.53;;;;;;;15.33;100.00;-19564.94;5039457;28;20378;-71
2021/07/31 04:25:52;;;;;;;3.47;1.47;;;;;;;15.15;100.00;-19560.47;5037677;28;20298;-71
2021/07/31 04:28:18;;;;;;;3.93;1.60;;;;;;;15.14;100.00;-19560.09;5038457;28;20072;-71
2021/07/31 04:30:43;;;;;;;7.07;1.63;;;;;;;15.14;100.00;-19560.09;5037573;28;20029;-71
2021/07/31 04:33:09;;;;;;;7.37;1.60;;;;;;;15.16;100.00;-19560.75;5039133;28;20036;-71
2021/07/31 04:35:34;;;;;;;3.13;1.30;;;;;;;15.25;100.00;-19562.97;5037920;28;20096;-71
2021/07/31 04:38:02;;;;;;;6.73;1.97;;;;;;;15.45;100.00;-19568.06;5038778;28;20543;-70
2021/07/31 04:40:27;;;;;;;7.47;1.63;;;;;;;15.64;100.00;-19573.06;5031413;28;20024;-70
2021/07/31 04:42:53;;;;;;;4.53;1.80;;;;;;;16.11;100.00;-19585.06;5038885;28;20604;-70
2021/07/31 04:45:18;;;;;;;4.47;1.30;;;;;;;16.22;100.00;-19587.94;5043204;28;20124;-70
2021/07/31 04:47:44;;;;;;;3.57;1.37;;;;;;;16.59;100.00;-19597.34;5042895;28;20028;-69
2021/07/31 04:50:12;;;;;;;2.23;1.10;;;;;;;16.75;100.00;-19601.53;5041741;28;20048;-69
2021/07/31 04:52:38;;;;;;;5.20;1.43;;;;;;;16.93;100.00;-19606.13;5042825;28;20033;-69
2021/07/31 04:55:04;;;;;;;4.53;1.43;;;;;;;16.70;100.00;-19600.22;5041401;28;20047;-70
2021/07/31 04:57:29;;;;;;;3.80;1.33;;;;;;;16.20;100.00;-19587.44;5042327;28;20033;-70
2021/07/31 04:59:55;;;;;;;3.73;1.30;;;;;;;15.98;100.00;-19581.69;5042987;28;20031;-70
2021/07/31 05:02:21;;;;;;;5.80;1.33;;;;;;;15.90;100.00;-19579.59;5043038;28;20113;-70
2021/07/31 05:04:46;;;;;;;5.70;1.60;;;;;;;15.81;100.00;-19577.38;5040565;28;20104;-70
2021/07/31 05:07:12;;;;;;;7.10;1.33;;;;;;;15.85;100.00;-19578.41;5040114;28;20033;-70
2021/07/31 05:09:37;;;;;;;3.47;1.30;;;;;;;15.78;100.00;-19576.56;5041759;28;20475;-70
2021/07/31 05:12:03;;;;;;;5.67;1.87;;;;;;;15.79;100.00;-19576.84;5042972;28;20189;-70
2021/07/31 05:14:29;;;;;;;3.67;1.53;;;;;;;15.83;100.00;-19578.00;5040326;28;20240;-70
2021/07/31 05:16:54;;;;;;;4.07;1.50;;;;;;;15.87;100.00;-19578.78;5040667;28;20112;-70
2021/07/31 05:19:20;;;;;;;3.33;1.37;;;;;;;16.46;100.00;-19593.97;5042295;28;20278;-70
2021/07/31 05:21:46;;;;;;;7.77;1.53;;;;;;;17.27;100.00;-19614.84;5042916;28;20517;-69
2021/07/31 05:24:11;;;;;;;2.63;1.23;;;;;;;16.98;100.00;-19607.56;5041397;28;20036;-69
2021/07/31 05:26:38;;;;;;;3.40;1.20;;;;;;;17.43;100.00;-19619.03;5042475;28;20386;-69
2021/07/31 05:29:04;;;;;;;4.97;1.63;;;;;;;17.49;100.00;-19620.59;5040483;28;20040;-69
2021/07/31 05:31:30;;;;;;;1.77;1.00;;;;;;;17.88;100.00;-19630.53;5041261;28;20035;-69
2021/07/31 05:33:56;;;;;;;4.27;1.33;;;;;;;18.00;100.00;-19633.53;5039985;28;20864;-69
2021/07/31 05:36:22;;;;;;;4.67;1.43;;;;;;;18.28;100.00;-19640.69;5042669;28;20064;-69
2021/07/31 05:38:47;;;;;;;5.43;1.40;;;;;;;18.19;100.00;-19638.47;5041566;28;20557;-69
2021/07/31 05:41:14;;;;;;;3.97;1.20;;;;;;;17.66;100.00;-19624.78;5042231;28;20032;-69
2021/07/31 05:43:41;;;;;;;3.87;1.47;;;;;;;17.06;100.00;-19609.38;5041489;28;20116;-70
2021/07/31 05:46:06;;;;;;;6.47;1.57;;;;;;;16.74;100.00;-19601.16;5040415;28;20094;-70
2021/07/31 05:48:32;;;;;;;2.13;0.97;;;;;;;16.67;100.00;-19599.59;5041741;28;20040;-70
2021/07/31 05:50:57;;;;;;;8.07;1.67;;;;;;;16.62;100.00;-19598.16;5041740;28;20033;-70
2021/07/31 05:53:23;;;;;;;9.07;1.90;;;;;;;16.62;100.00;-19598.16;5040855;28;20107;-70
2021/07/31 05:55:48;;;;;;;6.10;1.43;;;;;;;16.47;100.00;-19594.34;5041163;28;20087;-70
2021/07/31 05:58:14;;;;;;;4.40;1.40;;;;;;;16.05;100.00;-19583.63;5041701;28;20032;-70
2021/07/31 06:00:39;;;;;;;4.20;1.23;;;;;;;15.76;100.00;-19576.19;5041751;28;20021;-70
2021/07/31 06:03:08;;;;;;;5.20;1.70;;;;;;;15.58;100.00;-19571.34;5040289;28;20033;-70
2021/07/31 06:05:33;;;;;;;5.97;1.83;;;;;;;15.47;100.00;-19568.59;5040014;28;20075;-70
2021/07/31 06:07:59;;;;;;;5.20;1.90;;;;;;;15.50;100.00;-19569.38;5040275;28;20478;-70
2021/07/31 06:10:24;;;;;;;8.07;1.90;;;;;;;15.59;100.00;-19571.59;5041824;28;20031;-70
2021/07/31 06:12:50;;;;;;;8.80;1.90;;;;;;;15.63;100.00;-19572.78;5041543;28;20029;-70
2021/07/31 06:15:16;;;;;;;4.13;1.90;;;;;;;15.64;100.00;-19573.06;5037865;28;20080;-70
2021/07/31 06:17:41;;;;;;;5.27;2.13;;;;;;;15.50;100.00;-19569.50;5039847;28;20800;-70
2021/07/31 06:20:08;;;;;;;4.40;1.50;;;;;;;15.42;100.00;-19567.28;5041061;28;20120;-70
2021/07/31 06:22:34;;;;;;;4.83;1.87;;;;;;;15.36;100.00;-19565.72;5036299;28;20283;-70
2021/07/31 06:24:59;;;;;;;5.27;1.80;;;;;;;15.28;100.00;-19563.63;5041028;28;20135;-70
2021/07/31 06:27:25;;;;;;;5.37;1.73;;;;;;;15.04;100.00;-19557.59;5039415;28;20032;-70
2021/07/31 06:29:50;;;;;;;6.60;1.97;;;;;;;14.96;100.00;-19555.50;5041020;28;20029;-70
2021/07/31 06:32:16;;;;;;;8.00;1.73;;;;;;;14.91;100.00;-19554.19;5041019;28;20382;-70
2021/07/31 06:34:41;;;;;;;7.00;2.00;;;;;;;14.91;100.00;-19554.34;5039183;28;20096;-70
2021/07/31 06:37:07;;;;;;;5.87;2.17;;;;;;;14.92;100.00;-19554.59;5039296;28;20233;-70
2021/07/31 06:39:32;;;;;;;5.40;2.20;;;;;;;14.99;100.00;-19556.28;5040451;28;20541;-70
2021/07/31 06:41:58;;;;;;;4.50;1.80;;;;;;;15.09;100.00;-19558.91;5041064;28;20037;-70
2021/07/31 06:44:23;;;;;;;4.80;2.30;;;;;;;15.20;100.00;-19561.78;5040518;28;20047;-70
2021/07/31 06:46:49;;;;;;;4.80;1.90;;;;;;;15.12;100.00;-19559.69;5039545;28;20051;-70
2021/07/31 06:49:14;;;;;;;8.93;2.07;;;;;;;15.09;100.00;-19558.91;5041163;28;20037;-70
2021/07/31 06:51:40;;;;;;;5.20;2.20;;;;;;;15.18;100.00;-19561.13;5040852;28;20523;-70
2021/07/31 06:54:05;;;;;;;18.13;2.53;;;;;;;15.36;100.00;-19565.72;5039899;28;20033;-70
2021/07/31 06:56:37;;;;;;;5.10;2.13;;;;;;;15.38;100.00;-19566.25;5041183;28;20311;-70
2021/07/31 06:59:03;;;;;;;;;;;;;;;15.35;100.00;-19565.44;5040884;28;20039;-70
2021/07/31 07:01:29;;;;;;;5.00;1.90;;;;;;;15.44;100.00;-19567.81;5039881;28;20373;-70
2021/07/31 07:03:54;;;;;;;6.57;2.57;;;;;;;15.38;100.00;-19566.25;5040251;28;20337;-70
2021/07/31 07:06:20;;;;;;;4.87;2.27;;;;;;;15.48;100.00;-19568.84;5038653;28;20305;-70
2021/07/31 07:08:46;;;;;;;3.30;1.73;;;;;;;16.10;100.00;-19584.81;5040326;28;20033;-70
2021/07/31 07:11:14;;;;;;;6.07;2.13;;;;;;;16.95;100.00;-19606.63;5037326;28;20086;-69
2021/07/31 07:13:39;;;;;;;4.63;2.63;;;;;;;17.10;100.00;-19610.41;5039345;28;20424;-69
2021/07/31 07:16:06;;;;;;;4.93;2.03;;;;;;;16.90;100.00;-19605.47;5039442;28;20132;-69
2021/07/31 07:18:31;;;;;;;6.63;2.33;;;;;;;17.12;100.00;-19610.94;5040028;28;20489;-69
2021/07/31 07:20:57;;;;;;;3.70;1.80;;;;;;;17.70;100.00;-19625.81;5040844;28;20032;-69
2021/07/31 07:23:22;;;;;;;6.50;2.10;;;;;;;18.65;100.00;-19650.19;5040228;28;20527;-69
2021/07/31 07:25:48;;;;;;;3.90;1.80;;;;;;;18.34;100.00;-19642.25;5039891;28;20536;-69
2021/07/31 07:28:13;;;;;;;7.70;1.85;;;;;;;18.21;100.00;-19638.88;5039978;28;20036;-69
2021/07/31 07:30:39;;;;;;;4.43;1.75;;;;;;;18.12;100.00;-19636.66;5040851;28;20505;-69
2021/07/31 07:33:04;;;;;;;3.05;1.50;;;;;;;18.38;100.00;-19643.44;5039246;28;20112;-69
2021/07/31 07:35:30;;;;;;;5.47;1.87;;;;;;;17.76;100.00;-19627.53;5032146;28;20025;-70
2021/07/31 07:37:56;;;;;;;4.67;1.93;;;;;;;17.60;100.00;-19623.34;5039126;28;20028;-70
2021/07/31 07:40:23;;;;;;;4.13;1.75;;;;;;;17.77;100.00;-19627.66;5038911;28;20362;-70
2021/07/31 07:42:49;;;;;;;13.50;2.20;;;;;;;17.50;100.00;-19620.88;5037976;28;20494;-70
2021/07/31 07:45:14;;;;;;;4.53;2.07;;;;;;;17.49;100.00;-19620.59;5040307;28;20112;-70
2021/07/31 07:47:40;;;;;;;4.13;1.73;;;;;;;17.66;100.00;-19624.78;5039961;28;20032;-70
2021/07/31 07:50:07;;;;;;;3.90;1.93;;;;;;;17.86;100.00;-19630.00;5038629;28;20040;-70
2021/07/31 07:52:33;;;;;;;4.70;2.10;;;;;;;17.73;100.00;-19626.59;5036905;28;20059;-70
2021/07/31 07:54:58;;;;;;;4.47;2.23;;;;;;;17.17;100.00;-19612.25;5039929;28;20175;-70
2021/07/31 07:57:24;;;;;;;3.90;1.80;;;;;;;16.84;100.00;-19603.91;5038063;28;20490;-70
2021/07/31 07:59:52;;;;;;;5.30;2.27;;;;;;;16.99;100.00;-19607.81;5040442;28;20268;-70
2021/07/31 08:02:18;;;;;;;8.17;2.70;;;;;;;17.13;100.00;-19611.19;5037345;28;20021;-70
2021/07/31 08:04:44;;;;;;;3.73;1.70;;;;;;;17.10;100.00;-19610.41;5039286;28;20080;-70
2021/07/31 08:07:11;;;;;;;4.87;2.07;;;;;;;17.18;100.00;-19612.50;5039473;28;20090;-70
2021/07/31 08:09:37;;;;;;;4.47;2.20;;;;;;;17.19;100.00;-19612.78;5039235;28;20036;-70
2021/07/31 08:12:05;;;;;;;4.70;2.10;;;;;;;17.23;100.00;-19613.81;5039215;28;20040;-70
2021/07/31 08:14:30;;;;;;;5.07;1.97;;;;;;;16.77;100.00;-19602.06;5036966;28;20029;-70
2021/07/31 08:16:57;;;;;;;5.70;2.37;;;;;;;16.12;100.00;-19585.34;5039918;28;20028;-69
2021/07/31 08:19:23;;;;;;;6.10;1.63;;;;;;;16.02;100.00;-19582.72;5039188;28;20165;-69
2021/07/31 08:21:51;;;;;;;7.53;2.50;;;;;;;15.89;100.00;-19579.47;5039466;28;20405;-69
2021/07/31 08:24:17;;;;;;;3.33;1.60;;;;;;;15.86;100.00;-19578.53;5038093;28;20059;-69
2021/07/31 08:26:44;;;;;;;5.03;2.23;;;;;;;16.17;100.00;-19586.50;5039075;28;20087;-70
2021/07/31 08:29:10;;;;;;;4.53;2.17;;;;;;;16.45;100.00;-19593.69;5038969;28;20040;-69
2021/07/31 08:31:38;;;;;;;5.30;2.13;;;;;;;16.93;100.00;-19606.13;5039964;28;20107;-69
2021/07/31 08:34:03;;;;;;;5.93;2.70;;;;;;;18.42;100.00;-19644.34;5037381;28;20040;-69
2021/07/31 08:36:29;;;;;;;5.70;2.00;;;;;;;18.31;100.00;-19641.47;5037843;28;20037;-69
2021/07/31 08:38:54;;;;;;;6.87;2.17;;;;;;;17.90;100.00;-19631.03;5038580;28;20071;-69
2021/07/31 08:41:21;;;;;;;4.47;1.80;;;;;;;17.84;100.00;-19629.47;5038661;28;20033;-70
2021/07/31 08:43:47;;;;;;;3.67;1.93;;;;;;;17.41;100.00;-19618.38;5036694;28;21376;-70
2021/07/31 08:46:12;;;;;;;4.83;1.70;;;;;;;17.82;100.00;-19628.97;5035037;28;20441;-69
2021/07/31 08:48:38;;;;;;;4.03;1.60;;;;;;;17.73;100.00;-19626.59;5034845;28;20424;-70
2021/07/31 08:51:04;;;;;;;4.60;1.70;;;;;;;17.54;100.00;-19621.91;5035309;28;20110;-70
2021/07/31 08:53:30;;;;;;;3.23;1.30;;;;;;;16.83;100.00;-19603.63;5034502;28;20458;-69
2021/07/31 08:55:57;;;;;;;6.13;2.00;;;;;;;16.01;100.00;-19582.47;5035718;28;20039;-69
2021/07/31 08:58:25;;;;;;;3.70;1.17;;;;;;;15.65;100.00;-19573.31;5035063;28;20390;-69
2021/07/31 09:00:53;;;;;;;7.30;2.40;;;;;;;15.47;100.00;-19568.59;5036047;28;20079;-69
2021/07/31 09:03:19;;;;;;;4.37;2.27;;;;;;;15.50;100.00;-19569.38;5030086;28;20254;-70
2021/07/31 09:05:45;;;;;;;5.83;1.90;;;;;;;15.54;100.00;-19570.56;5030730;28;20796;-69
2021/07/31 09:08:10;;;;;;;5.70;2.33;;;;;;;16.81;100.00;-19602.97;5033153;28;20036;-69
2021/07/31 09:10:39;;;;;;;4.83;1.93;;;;;;;16.93;100.00;-19606.25;5036149;28;20052;-69
2021/07/31 09:13:09;;;;;;;4.50;1.80;;;;;;;17.10;100.00;-19610.41;5035435;28;20525;-69
2021/07/31 09:15:37;;;;;;;3.03;1.53;;;;;;;17.18;100.00;-19612.50;5035452;28;20032;-70
2021/07/31 09:18:33;;;;;;;3.50;2.10;;;;;;;17.42;100.00;-19618.78;5035570;28;20481;-69
2021/07/31 09:21:06;;;;;;;3.87;1.90;;;;;;;18.43;100.00;-19644.72;5028219;28;20289;-69
2021/07/31 09:23:52;;;;;;;3.38;1.90;;;;;;;18.90;100.00;-19656.59;5036712;28;20366;-69
2021/07/31 09:26:21;;;;;;;4.97;1.90;;;;;;;18.15;100.00;-19637.44;5034563;28;20103;-69
2021/07/31 09:29:08;;;;;;;3.25;1.73;;;;;;;18.00;100.00;-19633.66;5036785;28;20086;-69
2021/07/31 09:31:35;;;;;;;3.47;1.50;;;;;;;18.44;100.00;-19644.84;5036156;28;20051;-70
2021/07/31 09:34:03;;;;;;;6.55;1.90;;;;;;;18.59;100.00;-19648.78;5039865;28;20028;-69
2021/07/31 09:36:42;;;;;;;5.18;2.35;;;;;;;18.75;100.00;-19652.81;5038396;28;20130;-70
2021/07/31 09:39:09;;;;;;;5.10;1.90;;;;;;;18.15;100.00;-19637.56;5038911;28;20037;-70
2021/07/31 09:41:39;;;;;;;4.20;2.03;;;;;;;17.68;100.00;-19625.28;5037962;28;20037;-70
2021/07/31 09:44:16;;;;;;;4.68;1.90;;;;;;;17.58;100.00;-19622.94;5039812;28;20054;-70
2021/07/31 09:46:54;;;;;;;6.47;2.23;;;;;;;17.80;100.00;-19628.44;5037424;28;20493;-70
2021/07/31 09:49:22;;;;;;;3.28;1.80;;;;;;;18.28;100.00;-19640.69;5039687;28;20505;-70
2021/07/31 09:51:52;;;;;;;3.47;1.90;;;;;;;18.46;100.00;-19645.38;5038203;28;20035;-70
2021/07/31 09:54:22;;;;;;;3.88;1.90;;;;;;;18.05;100.00;-19634.81;5038664;28;20028;-70
2021/07/31 09:56:52;;;;;;;3.53;1.80;;;;;;;18.25;100.00;-19639.91;5039875;28;20037;-70
2021/07/31 09:59:20;;;;;;;3.53;1.70;;;;;;;18.77;100.00;-19653.19;5039140;28;20039;-70
2021/07/31 10:02:03;;;;;;;2.80;1.50;;;;;;;19.21;100.00;-19664.66;5038822;28;20021;-70
2021/07/31 10:04:32;;;;;;;3.10;1.50;;;;;;;20.14;100.00;-19688.47;5038363;28;20060;-70
2021/07/31 10:07:02;;;;;;;2.70;1.23;;;;;;;20.14;100.00;-19688.47;5039569;28;20521;-70
2021/07/31 10:09:28;;;;;;;5.93;2.03;;;;;;;19.37;100.00;-19668.56;5039105;28;20033;-70
2021/07/31 10:11:55;;;;;;;3.15;1.52;;;;;;;19.08;100.00;-19661.16;5037626;28;20025;-70
2021/07/31 10:14:23;;;;;;;2.85;1.50;;;;;;;18.77;100.00;-19653.19;5039436;28;20229;-70
2021/07/31 10:16:48;;;;;;;2.88;1.48;;;;;;;18.35;100.00;-19642.50;5039793;28;20032;-72
2021/07/31 10:19:15;;;;;;;2.72;1.50;;;;;;;18.14;100.00;-19637.28;5038804;28;20040;-72
2021/07/31 10:22:00;;;;;;;3.42;1.92;;;;;;;18.22;100.00;-19639.25;5039242;28;20099;-72
2021/07/31 10:24:30;;;;;;;3.67;1.98;;;;;;;18.07;100.00;-19635.34;5037117;28;20028;-72
2021/07/31 10:27:22;;;;;;;3.80;2.08;;;;;;;18.10;100.00;-19636.25;5035795;28;20523;-72
2021/07/31 10:29:50;;;;;;;4.63;2.08;;;;;;;18.29;100.00;-19640.94;5039812;28;20137;-72
2021/07/31 10:32:43;;;;;;;3.20;1.65;;;;;;;19.23;100.00;-19665.19;5044538;28;20052;-69
2021/07/31 10:35:23;;;;;;;5.20;2.00;;;;;;;20.06;100.00;-19686.25;5031462;28;20127;-69
2021/07/31 10:37:50;;;;;;;3.95;1.65;;;;;;;19.17;100.00;-19663.63;5038148;28;20041;-70
2021/07/31 10:40:48;;;;;;;5.97;1.75;;;;;;;19.30;100.00;-19667.00;5038252;28;20036;-69
2021/07/31 10:43:14;;;;;;;4.00;1.60;;;;;;;19.11;100.00;-19662.06;4998647;28;20564;-69
2021/07/31 10:45:40;;;;;;;3.97;1.30;;;;;;;18.46;100.00;-19645.38;5037052;28;20040;-69
2021/07/31 10:48:25;;;;;;;4.72;1.63;;;;;;;17.99;100.00;-19633.38;5037661;28;20036;-69
2021/07/31 10:50:51;;;;;;;2.73;1.30;;;;;;;18.15;100.00;-19637.44;5038220;28;20059;-69
2021/07/31 10:53:19;;;;;;;3.97;1.87;;;;;;;18.40;100.00;-19643.94;5038402;28;20106;-69
2021/07/31 10:56:05;;;;;;;4.20;1.63;;;;;;;18.40;100.00;-19643.81;5035380;28;20040;-69
2021/07/31 10:58:31;;;;;;;4.13;1.67;;;;;;;18.42;100.00;-19644.34;5033488;28;20334;-69
2021/07/31 11:01:22;;;;;;;4.30;1.87;;;;;;;18.27;100.00;-19640.44;5037719;28;20390;-69
2021/07/31 11:03:49;;;;;;;4.07;1.70;;;;;;;18.39;100.00;-19643.56;5036480;28;20178;-70
2021/07/31 11:06:14;;;;;;;3.30;1.53;;;;;;;18.54;100.00;-19647.34;5035897;28;20037;-70
2021/07/31 11:09:10;;;;;;;9.13;1.77;;;;;;;19.59;100.00;-19674.44;5033184;28;20059;-70
2021/07/31 11:11:35;;;;;;;2.63;1.42;;;;;;;20.01;100.00;-19684.97;5036404;28;20469;-70
2021/07/31 11:14:02;;;;;;;3.35;1.48;;;;;;;20.75;100.00;-19704.06;5037652;28;20112;-70
2021/07/31 11:16:27;;;;;;;4.38;1.33;;;;;;;20.43;100.00;-19695.88;5036378;28;20116;-69